Time;durP1;ratioP1;P1;durP2;ratioP2;P2;SDS_P1;SDS_P2;PMS_P1;PMS_P2;Temp;Humidity;BMP_temperature;BMP_pressure;BME280_temperature;BME280_humidity;BME280_pressure;Samples;Min_cycle;Max_cycle;Signal;HPM_P1;HPM_P2
2021/08/21 00:02:04;;;;;;;6.68;4.13;;;;;;;18.42;57.57;101780.59;4874130;28;114586;-66
2021/08/21 00:04:31;;;;;;;5.57;4.03;;;;;;;18.40;57.44;101774.44;4860006;28;113879;-66
2021/08/21 00:06:58;;;;;;;7.90;4.60;;;;;;;18.38;57.45;101776.34;4849165;28;122714;-66
2021/08/21 00:09:26;;;;;;;7.20;4.57;;;;;;;18.38;57.63;101779.03;4865611;28;124719;-65
2021/08/21 00:11:53;;;;;;;6.95;4.68;;;;;;;18.34;57.81;101780.19;4852832;28;115220;-65
2021/08/21 00:14:20;;;;;;;7.25;4.63;;;;;;;18.32;57.76;101768.69;4867012;28;114898;-65
2021/08/21 00:16:47;;;;;;;7.32;4.65;;;;;;;18.30;57.83;101767.94;4871775;28;124086;-65
2021/08/21 00:19:15;;;;;;;7.30;4.43;;;;;;;18.28;57.68;101775.22;4863087;28;124060;-65
2021/08/21 00:21:42;;;;;;;7.18;4.40;;;;;;;18.25;57.73;101770.03;4871398;28;114878;-65
2021/08/21 00:24:09;;;;;;;6.55;4.50;;;;;;;18.22;57.46;101762.19;4861689;28;113877;-66
2021/08/21 00:26:36;;;;;;;8.43;4.53;;;;;;;18.20;57.67;101766.81;4867988;28;123992;-65
2021/08/21 00:29:04;;;;;;;8.23;4.35;;;;;;;18.17;57.77;101766.97;4862508;28;124097;-65
2021/08/21 00:31:32;;;;;;;6.78;4.20;;;;;;;18.15;57.70;101768.91;4866781;28;114200;-65
2021/08/21 00:34:01;;;;;;;8.35;4.63;;;;;;;18.12;57.50;101769.06;4867302;28;114980;-66
2021/08/21 00:36:28;;;;;;;5.82;4.05;;;;;;;18.09;57.67;101765.63;4861994;28;123755;-66
2021/08/21 00:38:55;;;;;;;6.97;3.92;;;;;;;18.06;57.52;101768.53;4854802;28;123897;-66
2021/08/21 00:41:23;;;;;;;6.20;3.55;;;;;;;18.03;57.42;101776.75;4866214;28;115445;-66
2021/08/21 00:43:50;;;;;;;5.70;3.90;;;;;;;18.01;57.63;101773.28;4869336;28;113797;-66
2021/08/21 00:46:18;;;;;;;5.88;4.07;;;;;;;17.97;57.76;101769.09;4862987;28;124032;-66
2021/08/21 00:48:45;;;;;;;4.90;4.10;;;;;;;17.94;57.79;101766.59;4848475;28;123086;-66
2021/08/21 00:51:12;;;;;;;7.00;4.22;;;;;;;17.91;57.69;101772.13;4862908;28;114882;-66
2021/08/21 00:53:40;;;;;;;6.22;4.20;;;;;;;17.88;57.95;101762.47;4845956;28;113137;-66
2021/08/21 00:56:08;;;;;;;6.30;3.85;;;;;;;17.85;57.92;101773.34;4850377;28;123078;-65
2021/08/21 00:58:36;;;;;;;4.97;3.70;;;;;;;17.85;57.64;101777.88;4856761;28;123357;-65
2021/08/21 01:01:03;;;;;;;6.40;4.07;;;;;;;17.82;57.88;101778.00;4865795;28;115178;-65
2021/08/21 01:03:31;;;;;;;6.28;4.30;;;;;;;17.80;58.09;101774.56;4844668;28;114106;-65
2021/08/21 01:06:00;;;;;;;6.93;4.35;;;;;;;17.77;58.29;101769.41;4867471;28;123165;-64
2021/08/21 01:08:30;;;;;;;7.30;4.82;;;;;;;17.75;58.08;101765.97;4849153;28;123510;-65
2021/08/21 01:11:05;;;;;;;7.70;4.68;;;;;;;17.74;58.21;101772.25;4866465;28;113790;-65
2021/08/21 01:13:33;;;;;;;7.55;4.40;;;;;;;17.71;58.40;101766.13;4856746;28;113731;-65
2021/08/21 01:16:00;;;;;;;8.20;4.47;;;;;;;17.70;58.30;101764.38;4851859;28;123184;-65
2021/08/21 01:18:29;;;;;;;6.78;4.57;;;;;;;17.69;58.53;101768.03;4856432;28;122794;-65
2021/08/21 01:20:57;;;;;;;7.22;4.15;;;;;;;17.68;58.50;101766.31;4849956;28;113400;-65
2021/08/21 01:23:24;;;;;;;5.88;4.47;;;;;;;17.66;58.67;101752.13;4857294;28;113928;-65
2021/08/21 01:26:01;;;;;;;6.38;3.90;;;;;;;17.66;58.72;101757.50;4869727;28;123939;-65
2021/08/21 01:28:42;;;;;;;5.70;3.60;;;;;;;17.66;58.67;101757.50;4873998;28;124099;-65
2021/08/21 01:31:24;;;;;;;8.18;3.50;;;;;;;17.69;58.82;101757.31;4859812;28;114512;-65
2021/08/21 01:33:52;;;;;;;5.90;3.83;;;;;;;17.70;58.71;101764.38;4855095;28;113593;-65
2021/08/21 01:36:20;;;;;;;7.32;3.92;;;;;;;17.71;58.86;101766.13;4852757;28;123210;-65
2021/08/21 01:39:13;;;;;;;7.80;3.85;;;;;;;17.73;58.97;101767.88;4859603;28;124573;-65
2021/08/21 01:41:46;;;;;;;6.65;4.22;;;;;;;17.73;58.96;101762.50;4854530;28;113373;-66
2021/08/21 01:44:17;;;;;;;6.22;3.90;;;;;;;17.76;59.07;101762.31;4855319;28;113622;-66
2021/08/21 01:46:47;;;;;;;6.20;3.78;;;;;;;17.77;59.01;101758.69;4848387;28;123501;-66
2021/08/21 01:49:22;;;;;;;6.00;3.90;;;;;;;17.76;59.08;101756.94;4851423;28;122801;-65
2021/08/21 01:51:52;;;;;;;5.53;3.58;;;;;;;17.76;59.20;101767.66;4854881;28;114602;-66
2021/08/21 01:54:24;;;;;;;6.82;3.88;;;;;;;17.77;58.92;101758.69;4832154;28;114945;-66
2021/08/21 01:56:53;;;;;;;7.57;3.78;;;;;;;17.75;59.03;101761.44;4870387;28;124142;-66
2021/08/21 01:59:42;;;;;;;6.15;3.88;;;;;;;17.76;59.08;101757.81;4845261;28;124744;-66
2021/08/21 02:02:16;;;;;;;5.72;4.10;;;;;;;17.77;59.06;101758.69;4841563;28;113709;-65
2021/08/21 02:04:50;;;;;;;7.63;4.40;;;;;;;17.78;58.98;101752.34;4864106;28;116428;-65
2021/08/21 02:07:18;;;;;;;6.20;3.97;;;;;;;17.78;59.49;101755.03;4843206;28;123378;-68
2021/08/21 02:09:46;;;;;;;5.60;4.10;;;;;;;17.79;59.41;101746.91;4862760;28;123548;-68
2021/08/21 02:12:16;;;;;;;8.18;4.60;;;;;;;17.80;59.34;101753.13;4863969;28;113927;-68
2021/08/21 02:14:52;;;;;;;7.63;4.65;;;;;;;17.79;59.31;101741.53;4860010;28;113409;-69
2021/08/21 02:17:19;;;;;;;6.53;4.32;;;;;;;17.77;59.32;101750.66;4861960;28;123841;-68
2021/08/21 02:20:03;;;;;;;6.50;4.47;;;;;;;17.76;59.34;101756.94;4835224;28;123037;-68
2021/08/21 02:22:30;;;;;;;8.18;4.93;;;;;;;17.76;59.49;101756.94;4852107;28;113354;-69
2021/08/21 02:24:58;;;;;;;7.03;4.40;;;;;;;17.79;59.55;101756.78;4863184;28;113698;-69
2021/08/21 02:27:26;;;;;;;6.03;3.88;;;;;;;17.79;59.55;101757.63;4837280;28;123395;-69
2021/08/21 02:29:53;;;;;;;6.13;4.28;;;;;;;17.82;59.56;101757.44;4864220;28;124391;-69
2021/08/21 02:32:20;;;;;;;9.52;4.30;;;;;;;17.84;59.84;101754.69;4866384;28;114441;-69
2021/08/21 02:34:47;;;;;;;7.45;4.53;;;;;;;17.86;59.76;101752.81;4863608;28;114234;-69
2021/08/21 02:37:15;;;;;;;7.25;4.35;;;;;;;17.88;59.94;101746.38;4854631;28;123309;-69
2021/08/21 02:39:43;;;;;;;6.07;4.35;;;;;;;17.93;60.02;101748.75;4865815;28;123952;-69
2021/08/21 02:42:11;;;;;;;8.90;4.85;;;;;;;17.96;59.83;101748.59;4854261;28;114104;-69
2021/08/21 02:44:38;;;;;;;8.10;4.55;;;;;;;17.99;59.87;101748.41;4850466;28;113624;-69
2021/08/21 02:47:05;;;;;;;6.18;4.45;;;;;;;18.01;59.93;101743.81;4844600;28;123248;-69
2021/08/21 02:49:34;;;;;;;7.80;4.80;;;;;;;18.05;59.95;101747.16;4858247;28;124239;-69
2021/08/21 02:52:02;;;;;;;7.10;5.10;;;;;;;18.07;60.14;101750.59;4862549;28;114450;-69
2021/08/21 02:54:30;;;;;;;8.20;5.15;;;;;;;18.08;60.19;101747.84;4858945;28;114738;-70
2021/08/21 02:56:59;;;;;;;10.18;4.97;;;;;;;18.13;60.07;101749.38;4854980;28;123580;-69
2021/08/21 02:59:26;;;;;;;7.47;4.88;;;;;;;18.16;60.15;101749.16;4865065;28;124767;-69
2021/08/21 03:01:53;;;;;;;7.72;4.93;;;;;;;18.18;60.27;101747.25;4859106;28;115005;-69
2021/08/21 03:04:21;;;;;;;7.57;4.20;;;;;;;18.20;60.10;101748.03;4849370;28;113471;-69
2021/08/21 03:06:51;;;;;;;6.55;4.53;;;;;;;18.22;60.10;101748.78;4861100;28;124075;-69
2021/08/21 03:09:38;;;;;;;8.32;4.93;;;;;;;18.25;60.28;101751.25;4865433;28;124296;-69
2021/08/21 03:12:06;;;;;;;10.88;5.07;;;;;;;18.25;60.35;101759.31;4860855;28;113563;-69
2021/08/21 03:14:47;;;;;;;6.85;4.82;;;;;;;18.28;60.26;101748.41;4845300;28;113169;-69
2021/08/21 03:17:14;;;;;;;8.32;4.75;;;;;;;18.30;60.22;101746.47;4848560;28;124062;-70
2021/08/21 03:19:44;;;;;;;7.53;5.13;;;;;;;18.34;60.18;101745.31;4844926;28;123273;-69
2021/08/21 03:22:12;;;;;;;6.95;4.82;;;;;;;18.37;60.36;101736.22;4843436;28;113570;-69
2021/08/21 03:24:42;;;;;;;7.03;4.65;;;;;;;18.39;60.26;101740.53;4865645;28;113554;-69
2021/08/21 03:27:11;;;;;;;8.27;4.88;;;;;;;18.42;60.34;101736.78;4866729;28;123288;-69
2021/08/21 03:29:41;;;;;;;8.15;4.78;;;;;;;18.43;60.24;101734.00;4860072;28;123596;-69
2021/08/21 03:32:10;;;;;;;7.50;4.85;;;;;;;18.46;60.17;101735.66;4855100;28;114587;-69
2021/08/21 03:34:38;;;;;;;7.70;4.68;;;;;;;18.46;60.29;101733.81;4854780;28;114305;-69
2021/08/21 03:37:06;;;;;;;8.32;5.00;;;;;;;18.48;60.35;101733.72;4865574;28;123537;-69
2021/08/21 03:39:39;;;;;;;7.60;4.80;;;;;;;18.47;60.20;101738.22;4853485;28;123754;-69
2021/08/21 03:42:08;;;;;;;7.43;4.82;;;;;;;18.49;59.99;101740.78;4851909;28;113782;-69
2021/08/21 03:44:37;;;;;;;9.57;4.80;;;;;;;18.50;60.32;101737.16;4862825;28;113047;-69
2021/08/21 03:47:05;;;;;;;7.43;4.88;;;;;;;18.51;60.08;101738.03;4849848;28;123338;-69
2021/08/21 03:49:32;;;;;;;6.75;4.53;;;;;;;18.53;60.37;101741.47;4851888;28;124097;-69
2021/08/21 03:52:00;;;;;;;8.02;5.30;;;;;;;18.52;60.33;101735.25;4861192;28;113326;-69
2021/08/21 03:54:32;;;;;;;7.80;5.63;;;;;;;18.51;60.46;101727.28;4843912;28;115426;-69
2021/08/21 03:56:59;;;;;;;8.85;5.82;;;;;;;18.47;60.36;101738.22;4858109;28;123189;-69
2021/08/21 03:59:28;;;;;;;10.05;5.65;;;;;;;18.44;60.30;101727.69;4841750;28;122915;-69
2021/08/21 04:01:57;;;;;;;9.57;5.63;;;;;;;18.41;60.55;101733.25;4855833;28;113901;-69
2021/08/21 04:04:26;;;;;;;8.77;5.38;;;;;;;18.40;60.69;101730.66;4854556;28;112892;-69
2021/08/21 04:06:55;;;;;;;7.22;5.10;;;;;;;18.39;60.54;101735.16;4866881;28;124243;-70
2021/08/21 04:09:29;;;;;;;7.77;5.40;;;;;;;18.38;60.57;101728.06;4850154;28;122997;-69
2021/08/21 04:12:00;;;;;;;8.13;5.22;;;;;;;18.38;60.71;101733.44;4860346;28;113562;-69
2021/08/21 04:14:31;;;;;;;9.25;5.80;;;;;;;18.39;60.68;101734.31;4848389;28;113383;-69
2021/08/21 04:16:58;;;;;;;9.57;5.72;;;;;;;18.39;60.92;101729.81;4861204;28;124149;-69
2021/08/21 04:19:26;;;;;;;9.80;5.93;;;;;;;18.39;60.96;101729.81;4862709;28;123946;-70
2021/08/21 04:21:59;;;;;;;7.28;5.00;;;;;;;18.42;60.91;101734.97;4843717;28;114336;-69
2021/08/21 04:24:40;;;;;;;9.55;4.85;;;;;;;18.44;60.81;101743.78;4856832;28;114154;-69
2021/08/21 04:27:08;;;;;;;7.55;4.93;;;;;;;18.44;60.66;101743.78;4853382;28;123530;-69
2021/08/21 04:29:37;;;;;;;8.30;5.03;;;;;;;18.44;60.71;101738.44;4846857;28;123599;-69
2021/08/21 04:32:05;;;;;;;7.82;4.95;;;;;;;18.43;60.86;101736.69;4854651;28;113338;-69
2021/08/21 04:34:34;;;;;;;6.22;4.55;;;;;;;18.43;60.92;101736.69;4866786;28;114024;-69
2021/08/21 04:37:07;;;;;;;7.75;4.55;;;;;;;18.45;60.91;101740.13;4853036;28;123580;-69
2021/08/21 04:39:39;;;;;;;6.15;4.55;;;;;;;18.46;61.02;101736.50;4857006;28;123402;-69
2021/08/21 04:42:06;;;;;;;7.63;5.10;;;;;;;18.48;60.83;101733.72;4851056;28;113841;-69
2021/08/21 04:44:34;;;;;;;9.13;4.63;;;;;;;18.48;60.82;101734.56;4855419;28;113596;-69
2021/08/21 04:47:02;;;;;;;8.43;5.20;;;;;;;18.48;60.69;101734.56;4851385;28;123733;-70
2021/08/21 04:49:29;;;;;;;8.45;5.43;;;;;;;18.45;61.06;101729.41;4868188;28;124238;-70
2021/08/21 04:51:59;;;;;;;8.05;5.70;;;;;;;18.41;60.99;101727.88;4854027;28;113392;-70
2021/08/21 04:54:26;;;;;;;8.98;5.22;;;;;;;18.39;61.12;101729.81;4855874;28;112636;-69
2021/08/21 04:56:53;;;;;;;9.35;5.65;;;;;;;18.39;61.26;101729.81;4865578;28;124435;-70
2021/08/21 04:59:23;;;;;;;7.63;5.38;;;;;;;18.37;61.14;101731.72;4859203;28;123014;-70
2021/08/21 05:01:55;;;;;;;10.32;5.63;;;;;;;18.38;61.44;101733.44;4853065;28;113773;-70
2021/08/21 05:04:22;;;;;;;8.73;5.47;;;;;;;18.41;61.17;101737.75;4868600;28;112915;-70
2021/08/21 05:06:51;;;;;;;10.30;6.03;;;;;;;18.44;61.14;101737.53;4834582;28;123393;-70
2021/08/21 05:09:19;;;;;;;8.50;5.60;;;;;;;18.46;61.36;101736.50;4836338;28;123204;-71
2021/08/21 05:11:50;;;;;;;10.80;6.30;;;;;;;18.51;61.54;101743.38;4850600;28;114754;-70
2021/08/21 05:14:18;;;;;;;9.52;6.00;;;;;;;18.54;61.37;101740.53;4851457;28;113673;-70
2021/08/21 05:16:46;;;;;;;10.45;6.00;;;;;;;18.56;61.51;101741.28;4857126;28;124296;-70
2021/08/21 05:19:42;;;;;;;9.10;5.65;;;;;;;18.58;61.23;101744.72;4867451;28;124940;-70
2021/08/21 05:24:48;;;;;;;10.68;6.47;;;;;;;18.62;61.50;101746.25;4863967;28;114056;-69
2021/08/21 05:27:20;;;;;;;10.18;6.47;;;;;;;18.66;61.44;101737.03;4871619;28;124078;-70
2021/08/21 05:29:47;;;;;;;12.70;7.55;;;;;;;18.70;61.81;101746.59;4866666;28;124428;-70
2021/08/21 05:32:15;;;;;;;13.73;8.05;;;;;;;18.73;61.59;101743.72;4862466;28;113167;-70
2021/08/21 05:34:42;;;;;;;14.52;8.23;;;;;;;18.76;61.81;101743.53;4852829;28;113116;-70
2021/08/21 05:37:09;;;;;;;15.70;8.70;;;;;;;18.80;61.67;101739.72;4862318;28;124137;-70
2021/08/21 05:39:36;;;;;;;18.42;8.85;;;;;;;18.82;61.78;101737.78;4847245;28;123484;-70
2021/08/21 05:42:03;;;;;;;17.08;9.75;;;;;;;18.85;61.80;101742.97;4849948;28;114837;-70
2021/08/21 05:44:31;;;;;;;18.75;10.30;;;;;;;18.86;61.76;101736.63;4860493;28;113711;-69
2021/08/21 05:46:58;;;;;;;17.65;10.38;;;;;;;18.88;61.87;101735.66;4863142;28;123935;-70
2021/08/21 05:49:25;;;;;;;19.27;11.93;;;;;;;18.89;62.13;101738.22;4853635;28;122812;-70
2021/08/21 05:51:52;;;;;;;17.80;11.25;;;;;;;18.92;61.87;101737.19;4864428;28;114363;-70
2021/08/21 05:54:23;;;;;;;19.83;11.30;;;;;;;18.96;62.10;101738.69;4846531;28;112835;-70
2021/08/21 05:56:50;;;;;;;21.10;12.13;;;;;;;18.98;62.19;101747.50;4861812;28;124116;-70
2021/08/21 05:59:17;;;;;;;22.83;13.25;;;;;;;19.01;62.16;101744.63;4860185;28;124674;-70
2021/08/21 06:01:44;;;;;;;20.25;12.30;;;;;;;19.04;62.39;101747.09;4866808;28;115699;-70
2021/08/21 06:04:12;;;;;;;20.15;11.98;;;;;;;19.06;62.14;101750.53;4861485;28;115343;-70
2021/08/21 06:06:39;;;;;;;19.92;12.48;;;;;;;19.12;62.50;101743.91;4863663;28;123902;-69
2021/08/21 06:09:06;;;;;;;19.60;12.25;;;;;;;19.17;62.45;101750.69;4846407;28;123930;-69
2021/08/21 06:11:34;;;;;;;21.83;12.88;;;;;;;19.19;62.24;101751.47;4848072;28;114224;-69
2021/08/21 06:14:01;;;;;;;20.13;12.73;;;;;;;19.23;62.55;101752.97;4853061;28;114053;-69
2021/08/21 06:16:28;;;;;;;20.73;12.57;;;;;;;19.30;62.45;101753.41;4866819;28;124788;-69
2021/08/21 06:18:55;;;;;;;24.33;13.02;;;;;;;19.36;62.74;101758.34;4853223;28;123227;-69
2021/08/21 06:21:22;;;;;;;22.23;13.27;;;;;;;19.45;62.55;101762.25;4844635;28;113948;-69
2021/08/21 06:23:49;;;;;;;20.73;13.13;;;;;;;19.54;62.69;101756.25;4838822;28;113952;-69
2021/08/21 06:26:18;;;;;;;22.23;13.23;;;;;;;19.62;62.57;101763.78;4859551;28;123653;-69
2021/08/21 06:28:45;;;;;;;18.90;12.30;;;;;;;19.69;62.69;101764.25;4866885;28;124254;-69
2021/08/21 06:31:12;;;;;;;19.20;12.18;;;;;;;19.76;62.89;101755.69;4864297;28;114258;-69
2021/08/21 06:33:39;;;;;;;19.70;12.30;;;;;;;19.83;62.70;101764.16;4861006;28;114688;-69
2021/08/21 06:36:07;;;;;;;19.50;13.05;;;;;;;19.88;62.73;101762.03;4843273;28;123138;-69
2021/08/21 06:38:34;;;;;;;21.88;13.65;;;;;;;19.95;63.01;101752.56;4859937;28;124350;-70
2021/08/21 06:41:01;;;;;;;20.38;12.32;;;;;;;20.02;63.03;101756.56;4842252;28;114195;-70
2021/08/21 06:43:29;;;;;;;20.63;13.00;;;;;;;20.10;62.99;101755.13;4851175;28;113892;-69
2021/08/21 06:46:07;;;;;;;22.75;13.65;;;;;;;20.19;63.03;101757.16;4848697;28;127190;-70
2021/08/21 06:48:35;;;;;;;19.83;13.38;;;;;;;20.31;63.11;101756.31;4863797;28;124503;-70
2021/08/21 06:51:02;;;;;;;22.02;13.77;;;;;;;20.41;63.12;101761.88;4866493;28;115094;-71
2021/08/21 06:53:30;;;;;;;23.65;13.57;;;;;;;20.51;63.05;101762.06;4855734;28;114132;-70
2021/08/21 06:56:01;;;;;;;20.45;13.27;;;;;;;20.63;62.99;101765.75;4861685;28;123588;-69
2021/08/21 06:58:29;;;;;;;21.60;13.02;;;;;;;20.73;63.07;101761.41;4849481;28;122986;-69
2021/08/21 07:00:57;;;;;;;21.50;12.75;;;;;;;20.82;62.98;101759.88;4869899;28;114680;-70
2021/08/21 07:03:24;;;;;;;22.00;13.77;;;;;;;20.94;62.96;101758.94;4860702;28;114108;-70
2021/08/21 07:05:51;;;;;;;18.83;12.52;;;;;;;21.03;62.52;101763.66;4847540;28;124892;-69
2021/08/21 07:08:18;;;;;;;20.73;13.07;;;;;;;21.12;62.54;101762.13;4866006;28;124637;-70
2021/08/21 07:10:46;;;;;;;20.50;12.07;;;;;;;21.19;62.51;101753.44;4861290;28;114188;-70
2021/08/21 07:13:13;;;;;;;19.67;11.80;;;;;;;21.28;62.37;101757.25;4860180;28;114007;-70
2021/08/21 07:15:40;;;;;;;19.88;12.05;;;;;;;21.35;62.16;101761.22;4864705;28;123414;-71
2021/08/21 07:18:07;;;;;;;19.48;12.48;;;;;;;21.44;61.98;101750.72;4870374;28;122863;-70
2021/08/21 07:20:36;;;;;;;20.05;11.93;;;;;;;21.50;62.01;101745.75;4863863;28;114470;-70
2021/08/21 07:23:04;;;;;;;18.23;12.20;;;;;;;21.61;62.00;101752.16;4877159;23;114015;-73
2021/08/21 07:25:31;;;;;;;19.27;12.23;;;;;;;21.69;61.87;101753.25;4865846;28;123938;-73
2021/08/21 07:27:59;;;;;;;18.42;12.35;;;;;;;21.79;61.84;101745.31;4856533;28;123265;-73
2021/08/21 07:30:26;;;;;;;19.80;12.82;;;;;;;21.90;61.74;101745.31;4859808;28;114109;-73
2021/08/21 07:32:53;;;;;;;17.92;12.02;;;;;;;22.02;61.69;101750.72;4870466;28;114322;-73
2021/08/21 07:35:21;;;;;;;18.63;12.85;;;;;;;22.10;61.43;101746.47;4869875;28;123960;-73
2021/08/21 07:37:48;;;;;;;18.50;11.30;;;;;;;22.20;61.01;101743.88;4863090;28;125061;-73
2021/08/21 07:40:16;;;;;;;20.40;12.13;;;;;;;22.27;60.79;101747.84;4847976;28;114737;-72
2021/08/21 07:42:43;;;;;;;19.33;12.60;;;;;;;22.31;60.55;101746.59;4846515;28;114053;-71
2021/08/21 07:45:11;;;;;;;19.73;12.40;;;;;;;22.33;60.55;101741.94;4861334;28;124363;-72
2021/08/21 07:47:39;;;;;;;18.90;12.55;;;;;;;22.37;60.56;101749.78;4861500;28;124693;-72
2021/08/21 07:50:06;;;;;;;18.05;11.60;;;;;;;22.42;60.75;101747.59;4860876;28;114524;-72
2021/08/21 07:52:33;;;;;;;18.60;12.48;;;;;;;22.49;60.61;101740.69;4868316;28;113967;-72
2021/08/21 07:55:01;;;;;;;19.92;12.20;;;;;;;22.58;60.54;101742.63;4868307;28;124325;-72
2021/08/21 07:57:28;;;;;;;19.40;12.23;;;;;;;22.69;60.70;101742.63;4851419;28;126745;-72
2021/08/21 07:59:55;;;;;;;16.55;12.25;;;;;;;22.81;60.43;101748.00;4867847;28;114386;-72
2021/08/21 08:02:22;;;;;;;19.30;12.60;;;;;;;22.90;60.51;101747.22;4858498;28;112713;-72
2021/08/21 08:04:49;;;;;;;18.38;11.88;;;;;;;23.00;60.25;101753.59;4853363;28;124763;-72
2021/08/21 08:07:16;;;;;;;18.30;11.57;;;;;;;23.09;60.02;101755.56;4868184;28;124591;-72
2021/08/21 08:09:43;;;;;;;17.00;11.75;;;;;;;23.16;59.76;101752.34;4867902;28;114296;-72
2021/08/21 08:12:10;;;;;;;20.15;11.88;;;;;;;23.23;59.86;101753.56;4858312;28;114544;-72
2021/08/21 08:14:37;;;;;;;16.27;10.88;;;;;;;23.32;59.78;101748.22;4866597;28;124123;-72
2021/08/21 08:17:04;;;;;;;21.45;11.95;;;;;;;23.43;59.56;101759.94;4866731;28;123937;-71
2021/08/21 08:19:32;;;;;;;14.70;10.50;;;;;;;23.57;59.62;101756.09;4845586;28;114072;-71
2021/08/21 08:22:00;;;;;;;16.65;11.32;;;;;;;23.72;59.43;101765.59;4856001;28;113820;-71
2021/08/21 08:24:27;;;;;;;15.32;10.70;;;;;;;23.84;59.13;101764.53;4856157;28;124051;-72
2021/08/21 08:26:54;;;;;;;17.77;11.27;;;;;;;23.95;59.14;101762.75;4889775;23;123530;-63
2021/08/21 08:29:21;;;;;;;14.80;11.07;;;;;;;24.06;58.63;101757.25;4874982;28;115570;-63
2021/08/21 08:31:48;;;;;;;20.77;11.32;;;;;;;24.17;58.58;101748.19;4871462;28;115017;-62
2021/08/21 08:34:15;;;;;;;18.95;11.68;;;;;;;24.29;58.60;101758.78;4872934;28;124972;-63
2021/08/21 08:36:43;;;;;;;18.35;11.13;;;;;;;24.43;58.32;101768.38;4871670;28;124093;-63
2021/08/21 08:39:10;;;;;;;15.88;11.43;;;;;;;24.53;58.20;101762.19;4865147;28;114269;-63
2021/08/21 08:41:41;;;;;;;16.15;11.15;;;;;;;24.62;57.82;101764.91;4863706;28;114142;-63
2021/08/21 08:44:10;;;;;;;16.15;11.05;;;;;;;24.77;58.04;101750.94;4867517;28;124103;-63
2021/08/21 08:46:38;;;;;;;15.88;11.13;;;;;;;24.95;58.23;101760.13;4872137;28;125004;-63
2021/08/21 08:49:06;;;;;;;16.50;11.48;;;;;;;25.13;57.41;101752.16;4869686;28;114555;-63
2021/08/21 08:51:35;;;;;;;16.42;10.27;;;;;;;25.30;57.29;101747.91;4865170;28;114094;-63
2021/08/21 08:54:03;;;;;;;15.00;10.63;;;;;;;25.45;56.92;101751.88;4851477;28;123102;-63
2021/08/21 08:56:32;;;;;;;16.02;10.57;;;;;;;25.56;56.25;101745.44;4835059;28;122708;-63
2021/08/21 08:58:59;;;;;;;14.30;10.70;;;;;;;25.60;56.08;101748.72;4848516;28;113005;-63
2021/08/21 09:01:26;;;;;;;16.10;10.68;;;;;;;25.68;55.68;101751.56;4865174;28;114167;-63
2021/08/21 09:04:17;;;;;;;14.70;9.70;;;;;;;25.76;55.11;101742.69;4871232;28;123070;-63
2021/08/21 09:06:44;;;;;;;13.52;9.55;;;;;;;25.82;55.14;101742.97;4860037;28;122760;-63
2021/08/21 09:09:14;;;;;;;13.48;9.20;;;;;;;25.91;55.30;101745.78;4872269;28;114559;-63
2021/08/21 09:11:43;;;;;;;12.45;9.40;;;;;;;26.04;55.05;101751.78;4871796;28;114073;-65
2021/08/21 09:14:19;;;;;;;14.13;9.90;;;;;;;26.15;54.63;101743.44;4873149;28;124087;-65
2021/08/21 09:16:48;;;;;;;12.13;8.68;;;;;;;26.23;54.31;101746.25;4860439;28;124392;-65
2021/08/21 09:19:26;;;;;;;14.40;9.05;;;;;;;26.31;54.04;101744.66;4873752;28;115290;-65
2021/08/21 09:22:01;;;;;;;13.30;8.55;;;;;;;26.38;53.78;101738.47;4874161;28;115018;-65
2021/08/21 09:24:28;;;;;;;11.25;8.43;;;;;;;26.48;53.98;101738.41;4858337;28;123936;-65
2021/08/21 09:27:12;;;;;;;11.70;8.57;;;;;;;26.57;54.30;101742.94;4870725;28;123768;-65
2021/08/21 09:29:39;;;;;;;12.43;8.48;;;;;;;26.73;54.08;101736.00;4867486;28;114401;-65
2021/08/21 09:32:07;;;;;;;11.07;8.05;;;;;;;26.84;53.46;101738.50;4873645;28;114087;-65
2021/08/21 09:34:35;;;;;;;9.45;7.07;;;;;;;26.91;52.65;101734.16;4871505;28;124331;-65
2021/08/21 09:37:02;;;;;;;12.25;8.30;;;;;;;26.96;52.83;101729.13;4864540;28;123728;-65
2021/08/21 09:39:40;;;;;;;12.13;8.52;;;;;;;27.05;52.81;101737.34;4871073;28;114680;-65
2021/08/21 09:42:09;;;;;;;13.18;8.68;;;;;;;27.15;52.29;101743.56;4869940;28;114539;-65
2021/08/21 09:44:40;;;;;;;9.85;7.70;;;;;;;27.19;52.12;101734.09;4872583;28;124060;-65
2021/08/21 09:47:26;;;;;;;12.73;7.43;;;;;;;27.23;51.48;101727.31;4871630;28;123996;-65
2021/08/21 09:50:17;;;;;;;9.38;6.20;;;;;;;27.22;51.18;101730.19;4858226;28;113424;-65
2021/08/21 09:52:47;;;;;;;8.70;6.40;;;;;;;27.23;50.76;101730.03;4868747;28;114240;-65
2021/08/21 09:55:19;;;;;;;8.77;6.65;;;;;;;27.30;51.20;101733.88;4860633;28;123881;-65
2021/08/21 09:58:07;;;;;;;8.30;6.00;;;;;;;27.40;50.38;101732.94;4872913;28;124805;-65
2021/08/21 10:00:38;;;;;;;8.50;5.95;;;;;;;27.41;50.58;101724.63;4870212;28;114252;-65
2021/08/21 10:03:06;;;;;;;8.10;5.03;;;;;;;27.44;49.88;101728.88;4873877;28;114055;-65
2021/08/21 10:05:33;;;;;;;6.47;4.80;;;;;;;27.50;49.56;101734.56;4869042;28;123907;-65
2021/08/21 10:08:07;;;;;;;9.00;5.43;;;;;;;27.51;49.46;101719.91;4874143;28;124570;-65
2021/08/21 10:10:50;;;;;;;7.00;5.05;;;;;;;27.58;49.23;101725.59;4860091;28;115284;-65
2021/08/21 10:13:24;;;;;;;6.55;4.47;;;;;;;27.68;49.59;101720.88;4875424;28;115234;-65
2021/08/21 10:15:52;;;;;;;;;;;;;;;27.79;50.45;101721.63;4875511;28;124476;-65
2021/08/21 10:18:22;;;;;;;5.15;3.80;;;;;;;27.91;49.05;101720.38;4861132;28;124982;-65
2021/08/21 10:20:49;;;;;;;6.50;4.57;;;;;;;28.00;48.61;101719.41;4870002;28;114121;-65
2021/08/21 10:23:23;;;;;;;5.25;3.65;;;;;;;28.08;48.43;101716.69;4872372;28;113998;-65
2021/08/21 10:26:01;;;;;;;5.80;3.88;;;;;;;28.19;48.58;101712.84;4864695;28;124390;-65
2021/08/21 10:28:31;;;;;;;4.22;3.50;;;;;;;28.34;47.91;101711.19;4873254;28;123762;-65
2021/08/21 10:30:58;;;;;;;5.70;3.58;;;;;;;28.45;47.31;101712.78;4871083;28;114655;-65
2021/08/21 10:33:28;;;;;;;4.60;3.42;;;;;;;28.46;46.74;101714.50;4868473;28;114231;-65
2021/08/21 10:35:56;;;;;;;7.80;3.70;;;;;;;28.43;46.88;101714.81;4874219;28;124804;-64
2021/08/21 10:38:30;;;;;;;5.57;3.80;;;;;;;28.45;47.26;101712.78;4868967;28;124581;-63
2021/08/21 10:41:07;;;;;;;6.95;4.88;;;;;;;28.49;46.43;101719.59;4867432;28;114183;-63
2021/08/21 10:43:47;;;;;;;7.32;4.40;;;;;;;28.42;46.75;101718.53;4873189;28;114255;-63
2021/08/21 10:46:29;;;;;;;8.07;4.85;;;;;;;28.44;46.77;101705.59;4867028;28;124339;-64
2021/08/21 10:49:03;;;;;;;6.30;4.10;;;;;;;28.47;46.52;101713.44;4871736;28;124528;-63
2021/08/21 10:51:36;;;;;;;4.68;3.53;;;;;;;28.48;46.65;101712.44;4858694;28;113198;-63
2021/08/21 10:54:19;;;;;;;4.28;3.00;;;;;;;28.57;46.41;101704.31;4872183;28;114141;-63
2021/08/21 10:56:47;;;;;;;6.57;2.97;;;;;;;28.67;46.08;101699.56;4867864;28;124413;-63
2021/08/21 10:59:41;;;;;;;4.97;3.10;;;;;;;28.77;46.54;101699.44;4842875;28;122706;-63
2021/08/21 11:02:26;;;;;;;5.05;3.17;;;;;;;28.90;46.15;101706.06;4859580;28;115503;-63
2021/08/21 11:04:54;;;;;;;7.78;3.63;;;;;;;28.99;45.32;101704.22;4863383;28;115544;-63
2021/08/21 11:07:30;;;;;;;4.28;3.22;;;;;;;29.01;45.10;101698.56;4867471;28;124112;-63
2021/08/21 11:10:16;;;;;;;5.78;3.05;;;;;;;29.03;44.94;101700.13;4867109;28;122666;-63
2021/08/21 11:12:47;;;;;;;4.30;2.80;;;;;;;29.08;44.60;101702.34;4868233;28;114924;-63
2021/08/21 11:15:20;;;;;;;5.25;2.55;;;;;;;29.12;44.35;101698.22;4862618;28;114375;-63
2021/08/21 11:17:49;;;;;;;3.83;2.75;;;;;;;29.15;43.89;101691.63;4866165;28;124122;-63
2021/08/21 11:20:34;;;;;;;6.40;3.20;;;;;;;29.07;43.90;101684.28;4868977;28;124265;-63
2021/08/21 11:23:07;;;;;;;5.20;2.93;;;;;;;29.05;43.95;101687.16;4860544;28;114011;-63
2021/08/21 11:25:35;;;;;;;3.72;2.67;;;;;;;29.06;44.05;101688.00;4852374;28;112998;-63
2021/08/21 11:28:07;;;;;;;3.40;2.53;;;;;;;29.06;43.88;101677.94;4863575;28;124536;-64